Time;durP1;ratioP1;P1;durP2;ratioP2;P2;SDS_P1;SDS_P2;PMS_P1;PMS_P2;Temp;Humidity;BMP_temperature;BMP_pressure;BME280_temperature;BME280_humidity;BME280_pressure;Samples;Min_cycle;Max_cycle;Signal;HPM_P1;HPM_P2
2023/04/13 05:30:05;;;;;;;;;1.00;1.00;;;;;;;;4546662;22;50989;-70
2023/04/13 05:32:34;;;;;;;;;5.75;3.00;;;;;;;;5068143;27;49779;-72
2023/04/13 05:34:59;;;;;;;;;8.00;5.25;;;;;;;;5090276;27;51355;-74
2023/04/13 05:37:24;;;;;;;;;3.75;2.25;;;;;;;;5084916;27;50156;-75
2023/04/13 05:39:50;;;;;;;;;2.00;2.00;;;;;;;;5094638;27;49950;-78
2023/04/13 05:42:15;;;;;;;;;4.50;2.75;;;;;;;;5072320;27;50164;-72
2023/04/13 05:44:41;;;;;;;;;4.25;2.25;;;;;;;;5091439;27;50561;-77
2023/04/13 05:47:06;;;;;;;;;6.50;3.75;;;;;;;;5091661;27;49836;-75
2023/04/13 05:49:31;;;;;;;;;6.25;5.00;;;;;;;;5091516;27;50350;-76
2023/04/13 05:51:56;;;;;;;;;2.00;2.00;;;;;;;;5092121;27;50920;-76
2023/04/13 05:54:22;;;;;;;;;4.00;3.00;;;;;;;;5091540;27;49747;-75
2023/04/13 05:56:47;;;;;;;;;2.75;2.75;;;;;;;;5090034;27;50048;-77
2023/04/13 05:59:13;;;;;;;;;1.75;1.00;;;;;;;;5091286;27;49839;-76
2023/04/13 06:01:38;;;;;;;;;9.25;5.75;;;;;;;;5091951;27;49794;-76
2023/04/13 06:04:04;;;;;;;;;2.50;2.00;;;;;;;;5087237;27;52177;-76
2023/04/13 06:06:29;;;;;;;;;9.50;7.25;;;;;;;;5091807;27;49729;-76
2023/04/13 06:08:55;;;;;;;;;4.25;3.00;;;;;;;;5087596;27;49742;-76
2023/04/13 06:11:21;;;;;;;;;2.00;2.00;;;;;;;;5091416;27;49751;-72
2023/04/13 06:13:46;;;;;;;;;4.75;1.25;;;;;;;;5090906;27;50984;-74
2023/04/13 06:16:12;;;;;;;;;6.75;3.00;;;;;;;;5084902;27;49767;-75
2023/04/13 06:18:37;;;;;;;;;4.25;2.50;;;;;;;;5091533;27;49871;-71
2023/04/13 06:21:02;;;;;;;;;2.50;1.00;;;;;;;;5091911;27;50061;-73
2023/04/13 06:23:27;;;;;;;;;6.00;3.25;;;;;;;;5091382;27;51011;-74
2023/04/13 06:25:53;;;;;;;;;7.50;3.50;;;;;;;;5082595;27;49862;-73
2023/04/13 06:28:19;;;;;;;;;4.25;2.75;;;;;;;;5090659;27;49865;-73
2023/04/13 06:30:44;;;;;;;;;3.00;3.00;;;;;;;;5088862;27;49815;-73
2023/04/13 06:33:10;;;;;;;;;6.00;2.25;;;;;;;;5091194;27;50353;-74
2023/04/13 06:35:35;;;;;;;;;4.25;2.25;;;;;;;;5090644;27;49785;-74
2023/04/13 06:38:01;;;;;;;;;3.75;2.75;;;;;;;;5091030;27;50218;-73
2023/04/13 06:40:26;;;;;;;;;4.25;3.25;;;;;;;;5087437;27;50272;-74
2023/04/13 06:42:52;;;;;;;;;6.75;3.00;;;;;;;;5088878;27;50831;-74
2023/04/13 06:45:17;;;;;;;;;3.50;3.00;;;;;;;;5089542;27;49776;-72
2023/04/13 06:47:43;;;;;;;;;2.25;2.00;;;;;;;;5091164;27;49757;-73
2023/04/13 06:50:09;;;;;;;;;7.25;3.00;;;;;;;;5086787;27;50067;-75
2023/04/13 06:52:34;;;;;;;;;7.50;3.25;;;;;;;;5064171;27;50190;-74
2023/04/13 06:55:00;;;;;;;;;4.00;2.75;;;;;;;;5080514;27;49668;-74
2023/04/13 06:57:25;;;;;;;;;3.25;3.00;;;;;;;;5072311;27;50178;-73
2023/04/13 06:59:51;;;;;;;;;10.75;6.00;;;;;;;;5090021;27;50140;-74
2023/04/13 07:02:16;;;;;;;;;10.50;5.00;;;;;;;;5090551;27;50849;-73
2023/04/13 07:04:41;;;;;;;;;2.50;2.50;;;;;;;;5091132;27;49865;-72
2023/04/13 07:07:06;;;;;;;;;5.00;3.00;;;;;;;;5090230;27;50130;-73
2023/04/13 07:09:32;;;;;;;;;5.25;3.00;;;;;;;;5090572;27;49727;-73
2023/04/13 07:12:01;;;;;;;;;1.75;1.75;;;;;;;;5093130;27;49946;-73
2023/04/13 07:14:26;;;;;;;;;6.75;3.00;;;;;;;;5088858;27;49721;-72
2023/04/13 07:16:51;;;;;;;;;4.50;1.50;;;;;;;;5090681;27;49815;-74
2023/04/13 07:19:19;;;;;;;;;2.25;2.25;;;;;;;;5091050;27;49937;-73
2023/04/13 07:21:44;;;;;;;;;3.00;3.00;;;;;;;;5090545;27;49771;-72
2023/04/13 07:24:09;;;;;;;;;0.25;0.25;;;;;;;;5085159;27;49746;-72
2023/04/13 07:26:34;;;;;;;;;4.50;3.25;;;;;;;;5083599;27;50093;-72
2023/04/13 07:29:00;;;;;;;;;5.25;3.00;;;;;;;;5088980;27;49599;-73
2023/04/13 07:31:28;;;;;;;;;8.50;3.75;;;;;;;;5089283;27;50729;-73
2023/04/13 07:33:53;;;;;;;;;4.25;2.00;;;;;;;;5090259;27;49986;-74
2023/04/13 07:36:18;;;;;;;;;3.75;3.50;;;;;;;;5090567;27;49863;-73
2023/04/13 07:38:43;;;;;;;;;2.00;2.00;;;;;;;;5090661;27;50122;-74
2023/04/13 07:41:09;;;;;;;;;2.00;2.00;;;;;;;;5089823;27;49756;-74
2023/04/13 07:43:35;;;;;;;;;7.50;2.50;;;;;;;;5090383;27;49855;-73
2023/04/13 07:46:07;;;;;;;;;3.00;3.00;;;;;;;;5089969;27;49768;-73
2023/04/13 07:48:32;;;;;;;;;1.00;1.00;;;;;;;;5089486;27;49765;-74
2023/04/13 07:50:57;;;;;;;;;9.50;6.50;;;;;;;;5089814;27;49857;-73
2023/04/13 07:53:22;;;;;;;;;4.00;2.25;;;;;;;;5090063;27;49856;-73
2023/04/13 07:55:48;;;;;;;;;7.50;2.75;;;;;;;;5090017;27;49990;-74
2023/04/13 07:58:13;;;;;;;;;3.25;2.00;;;;;;;;5089648;27;49788;-73
2023/04/13 08:00:38;;;;;;;;;6.75;2.50;;;;;;;;5088267;27;49832;-74
2023/04/13 08:03:05;;;;;;;;;2.75;2.00;;;;;;;;5088415;27;49683;-73
2023/04/13 08:05:30;;;;;;;;;4.00;2.00;;;;;;;;5089878;27;50089;-72
2023/04/13 08:07:55;;;;;;;;;3.50;2.50;;;;;;;;5089597;27;49714;-74
2023/04/13 08:10:20;;;;;;;;;3.00;3.00;;;;;;;;5089359;27;50105;-76
2023/04/13 08:12:46;;;;;;;;;7.00;4.25;;;;;;;;5089314;27;49777;-74
2023/04/13 08:15:11;;;;;;;;;3.25;3.25;;;;;;;;5089702;27;49759;-75
2023/04/13 08:17:36;;;;;;;;;3.00;3.00;;;;;;;;5070878;27;49937;-74
2023/04/13 08:20:04;;;;;;;;;5.00;4.00;;;;;;;;5087756;27;51590;-74
2023/04/13 08:22:30;;;;;;;;;5.75;4.00;;;;;;;;5089879;27;49666;-76
2023/04/13 08:24:55;;;;;;;;;8.00;4.50;;;;;;;;5089370;27;49826;-77
2023/04/13 08:27:20;;;;;;;;;5.00;2.25;;;;;;;;5071518;27;49719;-77
2023/04/13 08:29:45;;;;;;;;;7.00;3.00;;;;;;;;5088426;27;51300;-77
2023/04/13 08:32:10;;;;;;;;;2.75;2.75;;;;;;;;5071034;27;49908;-74
2023/04/13 08:34:37;;;;;;;;;4.75;4.75;;;;;;;;5089546;27;49731;-70
2023/04/13 08:37:02;;;;;;;;;2.00;2.00;;;;;;;;5086720;27;50116;-75
2023/04/13 08:39:27;;;;;;;;;4.50;3.00;;;;;;;;5087297;27;49844;-75
2023/04/13 08:41:52;;;;;;;;;5.25;3.00;;;;;;;;5088315;27;50001;-74
2023/04/13 08:44:17;;;;;;;;;5.00;5.00;;;;;;;;5087965;27;50884;-80
2023/04/13 08:46:44;;;;;;;;;2.75;2.25;;;;;;;;5089523;27;50007;-76
2023/04/13 08:49:10;;;;;;;;;2.75;1.00;;;;;;;;5089420;27;50054;-75
2023/04/13 08:51:35;;;;;;;;;2.00;2.00;;;;;;;;5088953;27;50041;-74
2023/04/13 08:54:01;;;;;;;;;3.75;3.75;;;;;;;;5089306;27;50018;-76
2023/04/13 08:56:27;;;;;;;;;3.50;2.50;;;;;;;;5088450;27;49933;-75
2023/04/13 08:58:56;;;;;;;;;7.50;4.75;;;;;;;;5088883;27;50891;-74
2023/04/13 09:01:21;;;;;;;;;2.75;2.75;;;;;;;;5069469;27;49737;-77
2023/04/13 09:03:49;;;;;;;;;7.75;5.00;;;;;;;;5089054;27;49830;-75
2023/04/13 09:06:20;;;;;;;;;6.50;3.25;;;;;;;;5088918;27;49834;-75
2023/04/13 09:08:46;;;;;;;;;2.00;2.00;;;;;;;;5069693;27;52854;-75
2023/04/13 09:11:11;;;;;;;;;2.25;2.25;;;;;;;;5085966;27;50325;-76
2023/04/13 09:13:36;;;;;;;;;2.00;1.25;;;;;;;;5087208;27;49766;-74
2023/04/13 09:16:01;;;;;;;;;4.00;3.50;;;;;;;;5085627;27;50065;-72
2023/04/13 09:18:27;;;;;;;;;3.50;1.75;;;;;;;;5087872;27;50232;-74
2023/04/13 09:20:58;;;;;;;;;5.75;4.25;;;;;;;;5088655;27;49718;-74
2023/04/13 09:23:24;;;;;;;;;3.75;2.25;;;;;;;;5069462;27;49914;-74
2023/04/13 09:26:02;;;;;;;;;2.50;2.00;;;;;;;;5063312;27;49945;-73
2023/04/13 09:28:27;;;;;;;;;3.75;2.75;;;;;;;;5085398;27;50669;-73
2023/04/13 09:31:00;;;;;;;;;3.00;1.00;;;;;;;;5066810;27;49943;-73
2023/04/13 09:33:26;;;;;;;;;5.50;3.00;;;;;;;;5088950;27;49829;-75
2023/04/13 09:35:51;;;;;;;;;2.00;1.00;;;;;;;;5086896;27;49856;-75
2023/04/13 09:38:16;;;;;;;;;1.75;1.00;;;;;;;;5087507;27;51855;-76
2023/04/13 09:40:48;;;;;;;;;1.50;1.50;;;;;;;;5077895;27;50133;-74
2023/04/13 09:43:13;;;;;;;;;5.00;2.00;;;;;;;;5062934;27;50001;-73
2023/04/13 09:45:45;;;;;;;;;2.75;1.75;;;;;;;;5088494;27;49737;-73
2023/04/13 09:48:17;;;;;;;;;3.00;2.75;;;;;;;;5087400;27;49948;-73
2023/04/13 09:50:43;;;;;;;;;1.50;1.00;;;;;;;;5082876;27;50243;-73
2023/04/13 09:53:12;;;;;;;;;2.25;2.00;;;;;;;;5088383;27;50243;-73
2023/04/13 09:55:38;;;;;;;;;1.00;0.75;;;;;;;;5088763;27;49920;-73
2023/04/13 09:58:09;;;;;;;;;1.25;1.25;;;;;;;;5088142;27;50525;-73
2023/04/13 10:00:37;;;;;;;;;1.00;1.00;;;;;;;;5084449;27;49814;-74
2023/04/13 10:03:04;;;;;;;;;1.00;1.00;;;;;;;;5087854;27;50143;-75
2023/04/13 10:05:31;;;;;;;;;1.00;1.00;;;;;;;;5088643;27;50061;-74
2023/04/13 10:07:56;;;;;;;;;1.00;0.00;;;;;;;;5088203;27;50927;-73
2023/04/13 10:10:21;;;;;;;;;5.00;2.50;;;;;;;;5088292;27;49758;-73
2023/04/13 10:12:48;;;;;;;;;1.00;1.00;;;;;;;;5088752;27;49741;-73
2023/04/13 10:15:23;;;;;;;;;3.00;2.00;;;;;;;;5088722;27;50049;-73
2023/04/13 10:18:00;;;;;;;;;1.00;1.00;;;;;;;;5088108;27;49706;-74
2023/04/13 10:20:27;;;;;;;;;1.00;1.00;;;;;;;;5069850;27;49837;-75
2023/04/13 10:22:52;;;;;;;;;1.75;1.75;;;;;;;;5091740;27;50313;-72
2023/04/13 10:25:18;;;;;;;;;2.25;1.00;;;;;;;;5092245;27;50036;-74
2023/04/13 10:27:54;;;;;;;;;2.00;0.00;;;;;;;;5091159;27;50500;-73
2023/04/13 10:30:20;;;;;;;;;1.00;1.00;;;;;;;;5091757;27;49737;-74
2023/04/13 10:32:46;;;;;;;;;0.50;0.50;;;;;;;;5092208;27;49793;-71
2023/04/13 10:35:12;;;;;;;;;2.00;0.00;;;;;;;;5091296;27;49680;-69
2023/04/13 10:37:39;;;;;;;;;1.00;0.00;;;;;;;;5090982;27;50530;-68
2023/04/13 10:40:05;;;;;;;;;0.75;0.00;;;;;;;;5072192;27;50209;-68
2023/04/13 10:42:40;;;;;;;;;1.00;1.00;;;;;;;;5090328;27;50030;-69
2023/04/13 10:45:15;;;;;;;;;3.50;1.00;;;;;;;;5091664;27;50084;-69
2023/04/13 10:47:40;;;;;;;;;1.00;1.00;;;;;;;;5091184;27;50982;-69
2023/04/13 10:50:14;;;;;;;;;1.75;1.00;;;;;;;;5087353;27;49894;-69
2023/04/13 10:52:40;;;;;;;;;2.25;1.50;;;;;;;;5091046;27;50044;-71
2023/04/13 10:55:07;;;;;;;;;2.50;1.75;;;;;;;;5090577;27;49959;-70
2023/04/13 10:57:33;;;;;;;;;1.00;1.00;;;;;;;;5090750;27;50672;-70
2023/04/13 10:59:59;;;;;;;;;0.75;0.75;;;;;;;;5090878;27;49854;-68
2023/04/13 11:02:25;;;;;;;;;0.50;0.50;;;;;;;;5090472;27;49790;-71
2023/04/13 11:04:51;;;;;;;;;1.50;1.50;;;;;;;;5090973;27;49695;-69
2023/04/13 11:07:24;;;;;;;;;1.50;1.50;;;;;;;;5090470;27;49992;-68
2023/04/13 11:09:49;;;;;;;;;2.00;2.00;;;;;;;;5090416;27;50077;-68
2023/04/13 11:12:15;;;;;;;;;2.50;1.75;;;;;;;;5089738;27;49970;-69
2023/04/13 11:14:44;;;;;;;;;1.00;0.00;;;;;;;;5091159;27;50044;-71
2023/04/13 11:17:12;;;;;;;;;0.50;0.50;;;;;;;;5089169;27;49759;-73
2023/04/13 11:19:47;;;;;;;;;0.75;0.75;;;;;;;;5090313;27;50058;-71
2023/04/13 11:22:17;;;;;;;;;3.00;1.75;;;;;;;;5085125;27;50205;-70
2023/04/13 11:24:42;;;;;;;;;1.25;1.00;;;;;;;;5087020;27;50040;-70
2023/04/13 11:27:15;;;;;;;;;2.50;2.50;;;;;;;;5084935;27;50051;-72
2023/04/13 11:29:40;;;;;;;;;2.25;1.25;;;;;;;;5087091;27;50066;-69
2023/04/13 11:32:14;;;;;;;;;2.00;1.50;;;;;;;;5083513;27;49807;-70
2023/04/13 11:34:39;;;;;;;;;1.00;1.00;;;;;;;;5084822;27;50142;-68
2023/04/13 11:37:06;;;;;;;;;4.00;1.00;;;;;;;;5086936;27;49784;-68
2023/04/13 11:39:33;;;;;;;;;3.00;2.00;;;;;;;;5082474;27;50221;-74
2023/04/13 11:42:03;;;;;;;;;1.75;1.50;;;;;;;;5075783;27;51462;-72
2023/04/13 11:44:28;;;;;;;;;1.75;1.25;;;;;;;;5060412;27;50467;-73
2023/04/13 11:46:55;;;;;;;;;3.00;2.00;;;;;;;;5074869;27;50756;-72
2023/04/13 11:49:20;;;;;;;;;2.00;2.00;;;;;;;;5075385;27;50076;-73
2023/04/13 11:51:47;;;;;;;;;1.50;1.25;;;;;;;;5078546;27;49901;-72
2023/04/13 11:54:12;;;;;;;;;1.75;1.75;;;;;;;;5074926;27;49905;-73
2023/04/13 11:56:37;;;;;;;;;3.25;2.00;;;;;;;;5073001;27;50873;-73
2023/04/13 11:59:07;;;;;;;;;0.00;0.00;;;;;;;;5073602;27;50141;-73
2023/04/13 12:01:32;;;;;;;;;1.00;1.00;;;;;;;;5074880;27;51644;-73
2023/04/13 12:04:00;;;;;;;;;1.25;0.75;;;;;;;;5073546;27;51785;-72
2023/04/13 12:06:26;;;;;;;;;1.50;1.00;;;;;;;;5075305;27;50993;-74
2023/04/13 12:08:56;;;;;;;;;1.00;1.00;;;;;;;;5087200;27;51642;-72
2023/04/13 12:11:23;;;;;;;;;3.25;1.00;;;;;;;;5089855;27;50421;-73
2023/04/13 12:13:52;;;;;;;;;2.50;1.00;;;;;;;;5070560;27;49751;-73
2023/04/13 12:16:25;;;;;;;;;1.00;1.00;;;;;;;;5083963;27;50583;-73
2023/04/13 12:18:51;;;;;;;;;2.00;2.00;;;;;;;;5087336;27;49843;-73
2023/04/13 12:21:17;;;;;;;;;1.25;1.00;;;;;;;;5089319;27;50116;-74
2023/04/13 12:23:51;;;;;;;;;2.50;2.50;;;;;;;;5089499;27;49838;-74
2023/04/13 12:26:18;;;;;;;;;3.00;1.00;;;;;;;;5088678;27;51059;-73
2023/04/13 12:28:43;;;;;;;;;1.00;1.00;;;;;;;;5089042;27;49811;-75
2023/04/13 12:31:11;;;;;;;;;1.25;1.25;;;;;;;;5087430;27;50082;-75
2023/04/13 12:33:37;;;;;;;;;1.25;1.25;;;;;;;;5087833;27;50236;-78
2023/04/13 12:36:05;;;;;;;;;2.50;2.00;;;;;;;;5069645;27;51101;-74
2023/04/13 12:38:30;;;;;;;;;3.00;0.75;;;;;;;;5088380;27;49754;-74
2023/04/13 12:40:55;;;;;;;;;2.00;2.00;;;;;;;;5086183;27;49673;-75
2023/04/13 12:43:21;;;;;;;;;4.75;2.75;;;;;;;;5087293;27;50161;-73
2023/04/13 12:45:46;;;;;;;;;3.00;2.00;;;;;;;;5088008;27;49757;-73
2023/04/13 12:48:11;;;;;;;;;4.25;4.25;;;;;;;;5088686;27;49702;-74
2023/04/13 12:50:36;;;;;;;;;1.75;1.75;;;;;;;;5086169;27;49770;-74
2023/04/13 12:53:02;;;;;;;;;3.25;2.25;;;;;;;;5070218;27;50065;-72
2023/04/13 12:55:28;;;;;;;;;5.25;2.00;;;;;;;;5082743;27;50615;-73
2023/04/13 12:57:53;;;;;;;;;1.75;1.75;;;;;;;;5088590;27;49780;-73
2023/04/13 13:00:19;;;;;;;;;1.00;1.00;;;;;;;;5088469;27;50231;-73
2023/04/13 13:02:44;;;;;;;;;1.50;1.50;;;;;;;;5089534;27;50085;-72
2023/04/13 13:05:09;;;;;;;;;4.50;2.25;;;;;;;;5088833;27;50816;-73
2023/04/13 13:07:35;;;;;;;;;1.00;1.00;;;;;;;;5089228;27;50145;-72
2023/04/13 13:10:00;;;;;;;;;4.00;2.75;;;;;;;;5088521;27;49806;-73
2023/04/13 13:12:28;;;;;;;;;3.25;2.25;;;;;;;;5089225;27;49944;-73
2023/04/13 13:14:54;;;;;;;;;2.00;1.00;;;;;;;;5080971;27;50075;-72
2023/04/13 13:17:19;;;;;;;;;2.00;1.00;;;;;;;;5088665;27;49699;-76
2023/04/13 13:19:44;;;;;;;;;3.50;2.00;;;;;;;;5087748;27;49784;-73
2023/04/13 13:22:09;;;;;;;;;1.00;1.00;;;;;;;;5088639;27;49989;-73
2023/04/13 13:24:35;;;;;;;;;1.50;1.25;;;;;;;;5088393;27;49793;-73
2023/04/13 13:27:00;;;;;;;;;1.00;1.00;;;;;;;;5088657;27;50014;-72
2023/04/13 13:29:29;;;;;;;;;0.00;0.00;;;;;;;;5088521;27;50134;-72
2023/04/13 13:31:55;;;;;;;;;3.00;3.00;;;;;;;;5089250;27;49860;-72
2023/04/13 13:34:20;;;;;;;;;1.50;1.50;;;;;;;;5088678;27;50915;-72
2023/04/13 13:36:45;;;;;;;;;0.00;0.00;;;;;;;;5088605;27;50099;-72
2023/04/13 13:39:11;;;;;;;;;1.00;1.00;;;;;;;;5088433;27;50206;-72
2023/04/13 13:41:36;;;;;;;;;2.25;2.25;;;;;;;;5086131;27;49853;-72
2023/04/13 13:44:01;;;;;;;;;2.00;1.00;;;;;;;;5069635;27;51233;-72
2023/04/13 13:46:26;;;;;;;;;2.00;1.00;;;;;;;;5084980;27;50015;-72
2023/04/13 13:48:52;;;;;;;;;2.75;2.00;;;;;;;;5088791;27;49780;-72
2023/04/13 13:51:17;;;;;;;;;3.00;0.00;;;;;;;;5084406;27;50361;-72
2023/04/13 13:53:42;;;;;;;;;2.25;0.00;;;;;;;;5088404;27;50559;-73
2023/04/13 13:56:07;;;;;;;;;3.75;1.00;;;;;;;;5091484;27;49800;-72
2023/04/13 13:58:32;;;;;;;;;1.00;1.00;;;;;;;;5091612;27;50041;-72
2023/04/13 14:00:58;;;;;;;;;1.75;1.50;;;;;;;;5091516;27;49940;-72
2023/04/13 14:03:23;;;;;;;;;1.00;1.00;;;;;;;;5090457;27;50099;-71
2023/04/13 14:05:48;;;;;;;;;0.50;0.50;;;;;;;;5073161;27;49798;-72
2023/04/13 14:08:14;;;;;;;;;2.00;2.00;;;;;;;;5086168;27;50208;-72
2023/04/13 14:10:40;;;;;;;;;1.00;1.00;;;;;;;;5092176;27;49826;-72
2023/04/13 14:13:06;;;;;;;;;1.25;1.00;;;;;;;;5071756;27;52257;-72
2023/04/13 14:15:31;;;;;;;;;1.25;1.25;;;;;;;;5091900;27;50165;-72
2023/04/13 14:17:56;;;;;;;;;4.25;3.00;;;;;;;;5091706;27;49696;-72
2023/04/13 14:20:21;;;;;;;;;2.25;2.25;;;;;;;;5091767;27;49636;-73
2023/04/13 14:22:46;;;;;;;;;2.00;2.00;;;;;;;;5091625;27;49817;-72
2023/04/13 14:25:12;;;;;;;;;1.75;1.00;;;;;;;;5073197;27;49686;-72
2023/04/13 14:27:37;;;;;;;;;1.00;1.00;;;;;;;;5091466;27;49677;-72
2023/04/13 14:30:03;;;;;;;;;1.00;1.00;;;;;;;;5090764;27;49955;-72
2023/04/13 14:32:28;;;;;;;;;2.00;2.00;;;;;;;;5090100;27;50444;-72
2023/04/13 14:34:55;;;;;;;;;1.00;1.00;;;;;;;;5087177;27;50964;-72
2023/04/13 14:37:22;;;;;;;;;1.00;0.75;;;;;;;;5091612;27;49845;-72
2023/04/13 14:39:47;;;;;;;;;0.25;0.25;;;;;;;;5090375;27;49866;-74
2023/04/13 14:42:12;;;;;;;;;0.75;0.75;;;;;;;;5087449;27;50141;-75
2023/04/13 14:44:37;;;;;;;;;1.50;1.50;;;;;;;;5084912;27;50881;-69
2023/04/13 14:47:04;;;;;;;;;1.00;1.00;;;;;;;;5083245;27;50645;-70
2023/04/13 14:49:29;;;;;;;;;4.25;1.00;;;;;;;;5084505;27;50039;-70
2023/04/13 14:51:54;;;;;;;;;3.00;3.00;;;;;;;;5087405;27;49830;-71
2023/04/13 14:54:20;;;;;;;;;0.25;0.25;;;;;;;;5083044;27;50331;-71
2023/04/13 14:56:45;;;;;;;;;0.25;0.25;;;;;;;;5085767;27;50254;-69
2023/04/13 14:59:11;;;;;;;;;0.00;0.00;;;;;;;;5088096;27;50159;-70
2023/04/13 15:01:36;;;;;;;;;1.00;1.00;;;;;;;;5079905;27;51612;-70
2023/04/13 15:04:01;;;;;;;;;1.00;1.00;;;;;;;;5086388;27;50029;-71
2023/04/13 15:06:27;;;;;;;;;1.75;0.75;;;;;;;;5086338;27;49902;-71
2023/04/13 15:08:54;;;;;;;;;2.00;2.00;;;;;;;;5087812;27;50599;-70
2023/04/13 15:11:19;;;;;;;;;1.75;1.50;;;;;;;;5085886;27;50853;-71
2023/04/13 15:13:44;;;;;;;;;0.00;0.00;;;;;;;;5084858;27;50297;-70
2023/04/13 15:16:10;;;;;;;;;1.75;1.75;;;;;;;;5086917;27;50038;-71
2023/04/13 15:18:35;;;;;;;;;1.25;1.25;;;;;;;;5086319;27;50526;-69
2023/04/13 15:21:01;;;;;;;;;1.50;1.50;;;;;;;;5084781;27;49973;-70
2023/04/13 15:23:26;;;;;;;;;1.00;1.00;;;;;;;;5087017;27;49845;-71
2023/04/13 15:25:52;;;;;;;;;1.00;1.00;;;;;;;;5087058;27;49875;-70
2023/04/13 15:28:17;;;;;;;;;1.00;0.00;;;;;;;;5069773;27;50267;-69
2023/04/13 15:30:43;;;;;;;;;0.50;0.50;;;;;;;;5087359;27;49884;-71
2023/04/13 15:33:08;;;;;;;;;1.75;0.75;;;;;;;;5085900;27;49805;-70
2023/04/13 15:35:34;;;;;;;;;1.75;1.75;;;;;;;;5087432;27;50131;-69
2023/04/13 15:38:00;;;;;;;;;2.75;1.00;;;;;;;;5087053;27;51429;-71
2023/04/13 15:40:26;;;;;;;;;1.75;1.50;;;;;;;;5088627;27;51481;-71
2023/04/13 15:42:51;;;;;;;;;1.00;1.00;;;;;;;;5084156;27;50124;-70
2023/04/13 15:45:17;;;;;;;;;1.00;1.00;;;;;;;;5088041;27;50001;-71
2023/04/13 15:47:43;;;;;;;;;3.00;1.00;;;;;;;;5087081;27;50319;-71
2023/04/13 15:50:09;;;;;;;;;0.50;0.50;;;;;;;;5088051;27;50215;-70
2023/04/13 15:52:35;;;;;;;;;1.00;0.75;;;;;;;;5087237;27;49800;-70
2023/04/13 15:55:00;;;;;;;;;2.00;1.00;;;;;;;;5079176;27;49792;-72
2023/04/13 15:57:26;;;;;;;;;0.75;0.75;;;;;;;;5079175;27;49877;-70
2023/04/13 15:59:51;;;;;;;;;1.75;1.75;;;;;;;;5079596;27;51156;-70
2023/04/13 16:02:16;;;;;;;;;2.75;1.00;;;;;;;;5078716;27;49912;-70
2023/04/13 16:04:41;;;;;;;;;3.00;0.00;;;;;;;;5082704;27;50219;-70
2023/04/13 16:07:07;;;;;;;;;0.00;0.00;;;;;;;;5084534;27;50151;-71
2023/04/13 16:09:33;;;;;;;;;0.00;0.00;;;;;;;;5081173;27;50193;-71
2023/04/13 16:12:01;;;;;;;;;0.50;0.50;;;;;;;;5078460;27;49966;-71
2023/04/13 16:14:26;;;;;;;;;0.00;0.00;;;;;;;;5078627;27;51473;-70
2023/04/13 16:16:52;;;;;;;;;1.75;1.50;;;;;;;;5076463;27;50302;-71
2023/04/13 16:19:18;;;;;;;;;0.00;0.00;;;;;;;;5081257;27;51265;-71
2023/04/13 16:21:44;;;;;;;;;2.00;0.50;;;;;;;;5087504;27;50072;-71
2023/04/13 16:24:12;;;;;;;;;0.00;0.00;;;;;;;;5089418;27;49818;-72
2023/04/13 16:26:37;;;;;;;;;3.75;1.00;;;;;;;;5068500;27;49757;-71
2023/04/13 16:29:03;;;;;;;;;0.75;0.00;;;;;;;;5088672;27;50397;-71
2023/04/13 16:31:28;;;;;;;;;0.50;0.50;;;;;;;;5089255;27;50175;-74
2023/04/13 16:33:54;;;;;;;;;1.00;1.00;;;;;;;;5089377;27;49906;-71
2023/04/13 16:36:19;;;;;;;;;0.00;0.00;;;;;;;;5089176;27;50193;-70
2023/04/13 16:38:45;;;;;;;;;1.00;1.00;;;;;;;;5088408;27;49806;-72
2023/04/13 16:41:10;;;;;;;;;2.00;0.00;;;;;;;;5089029;27;49758;-72
2023/04/13 16:43:35;;;;;;;;;1.75;1.00;;;;;;;;5089042;27;49804;-71
2023/04/13 16:46:01;;;;;;;;;0.75;0.75;;;;;;;;5089180;27;50035;-71
2023/04/13 16:48:27;;;;;;;;;0.00;0.00;;;;;;;;5089117;27;50536;-71
2023/04/13 16:50:59;;;;;;;;;0.00;0.00;;;;;;;;5088998;27;49800;-70
2023/04/13 16:53:25;;;;;;;;;3.00;0.00;;;;;;;;5088939;27;49874;-71
2023/04/13 16:55:50;;;;;;;;;0.00;0.00;;;;;;;;5089558;27;49792;-69
2023/04/13 16:58:15;;;;;;;;;1.00;1.00;;;;;;;;5088926;27;50020;-74
2023/04/13 17:00:41;;;;;;;;;1.00;1.00;;;;;;;;5089110;27;50216;-70
2023/04/13 17:03:06;;;;;;;;;2.00;1.00;;;;;;;;5090038;27;49807;-74
2023/04/13 17:05:31;;;;;;;;;1.00;1.00;;;;;;;;5089042;27;49950;-71
2023/04/13 17:07:56;;;;;;;;;2.00;1.75;;;;;;;;5089083;27;50857;-71
2023/04/13 17:10:22;;;;;;;;;2.00;0.00;;;;;;;;5089251;27;49845;-71
2023/04/13 17:12:47;;;;;;;;;0.00;0.00;;;;;;;;5089424;27;50290;-72
2023/04/13 17:15:12;;;;;;;;;1.00;0.00;;;;;;;;5089584;27;49861;-72
2023/04/13 17:17:37;;;;;;;;;0.00;0.00;;;;;;;;5088708;27;51938;-72
2023/04/13 17:20:03;;;;;;;;;1.50;0.50;;;;;;;;5088987;27;50075;-72
2023/04/13 17:22:28;;;;;;;;;0.00;0.00;;;;;;;;5089298;27;49809;-72
2023/04/13 17:24:54;;;;;;;;;0.75;0.00;;;;;;;;5089364;27;49703;-71
2023/04/13 17:27:19;;;;;;;;;0.50;0.50;;;;;;;;5087946;27;49771;-72
2023/04/13 17:29:45;;;;;;;;;0.00;0.00;;;;;;;;5071545;27;49860;-71
2023/04/13 17:32:10;;;;;;;;;0.00;0.00;;;;;;;;5092532;27;49978;-70
2023/04/13 17:34:35;;;;;;;;;0.00;0.00;;;;;;;;5092949;27;49882;-70
2023/04/13 17:37:01;;;;;;;;;0.00;0.00;;;;;;;;5092494;27;50108;-73
2023/04/13 17:39:26;;;;;;;;;0.00;0.00;;;;;;;;5092358;27;49771;-73
2023/04/13 17:41:51;;;;;;;;;0.50;0.00;;;;;;;;5092706;27;49667;-72
2023/04/13 17:44:16;;;;;;;;;1.00;1.00;;;;;;;;5090431;27;50109;-72
2023/04/13 17:46:41;;;;;;;;;0.00;0.00;;;;;;;;5090892;27;50065;-74
2023/04/13 17:49:07;;;;;;;;;1.00;1.00;;;;;;;;5073823;27;49660;-72
2023/04/13 17:51:33;;;;;;;;;0.00;0.00;;;;;;;;5074002;27;49716;-71
2023/04/13 17:53:58;;;;;;;;;1.00;1.00;;;;;;;;5091492;27;50104;-71
2023/04/13 17:56:23;;;;;;;;;2.00;2.00;;;;;;;;5091686;27;51594;-73
2023/04/13 17:58:48;;;;;;;;;2.25;1.75;;;;;;;;5091187;27;49712;-71
2023/04/13 18:01:14;;;;;;;;;1.00;1.00;;;;;;;;5091309;27;49557;-72
2023/04/13 18:03:39;;;;;;;;;1.25;1.25;;;;;;;;5086269;27;50115;-72
2023/04/13 18:06:04;;;;;;;;;1.75;1.75;;;;;;;;5067257;27;52424;-70
2023/04/13 18:08:30;;;;;;;;;1.00;1.00;;;;;;;;5091795;27;49735;-70
2023/04/13 18:10:58;;;;;;;;;0.00;0.00;;;;;;;;5092215;27;49665;-70
2023/04/13 18:13:23;;;;;;;;;2.00;0.00;;;;;;;;5092245;27;50187;-71
2023/04/13 18:15:49;;;;;;;;;3.00;1.75;;;;;;;;5091876;27;50776;-74
2023/04/13 18:18:16;;;;;;;;;2.25;2.00;;;;;;;;5091635;27;49777;-71
2023/04/13 18:20:41;;;;;;;;;2.50;1.50;;;;;;;;5091992;27;49782;-70
2023/04/13 18:23:07;;;;;;;;;1.75;1.00;;;;;;;;5091850;27;50441;-70
2023/04/13 18:25:33;;;;;;;;;2.00;0.25;;;;;;;;5091449;27;50693;-70
2023/04/13 18:27:58;;;;;;;;;1.00;1.00;;;;;;;;5091612;27;49650;-70
2023/04/13 18:30:23;;;;;;;;;2.25;1.25;;;;;;;;5086910;27;50140;-70
2023/04/13 18:32:50;;;;;;;;;1.75;1.75;;;;;;;;5090838;27;50030;-70
2023/04/13 18:35:16;;;;;;;;;0.00;0.00;;;;;;;;5091316;27;50055;-70
2023/04/13 18:37:41;;;;;;;;;1.00;1.00;;;;;;;;5090988;27;49694;-69
2023/04/13 18:40:07;;;;;;;;;1.00;1.00;;;;;;;;5072463;27;49758;-74
2023/04/13 18:42:32;;;;;;;;;0.75;0.50;;;;;;;;5090590;27;49691;-70
2023/04/13 18:44:57;;;;;;;;;1.00;1.00;;;;;;;;5091286;27;49747;-70
2023/04/13 18:47:24;;;;;;;;;0.50;0.50;;;;;;;;5091372;27;49679;-71
2023/04/13 18:49:49;;;;;;;;;2.50;2.50;;;;;;;;5091264;27;49760;-71
2023/04/13 18:52:15;;;;;;;;;0.00;0.00;;;;;;;;5090296;27;50069;-73
2023/04/13 18:54:40;;;;;;;;;0.00;0.00;;;;;;;;5090717;27;50585;-71
2023/04/13 18:57:06;;;;;;;;;1.00;1.00;;;;;;;;5087110;27;50098;-70
2023/04/13 18:59:31;;;;;;;;;0.50;0.00;;;;;;;;5090939;27;49707;-73
2023/04/13 19:01:56;;;;;;;;;1.50;0.00;;;;;;;;5090883;27;49821;-74
2023/04/13 19:04:22;;;;;;;;;0.25;0.25;;;;;;;;5079514;27;50228;-73
2023/04/13 19:06:48;;;;;;;;;2.25;1.00;;;;;;;;5090998;27;50208;-72
2023/04/13 19:09:13;;;;;;;;;0.75;0.75;;;;;;;;5091326;27;49673;-72
2023/04/13 19:11:46;;;;;;;;;0.75;0.75;;;;;;;;5091145;27;50117;-73
2023/04/13 19:14:11;;;;;;;;;0.75;0.75;;;;;;;;5072202;27;52014;-75
2023/04/13 19:16:36;;;;;;;;;2.00;1.50;;;;;;;;5089456;27;49837;-73
2023/04/13 19:19:03;;;;;;;;;3.00;1.00;;;;;;;;5090491;27;49774;-73
2023/04/13 19:21:28;;;;;;;;;1.00;1.00;;;;;;;;5071574;27;49862;-75
2023/04/13 19:23:53;;;;;;;;;1.50;1.50;;;;;;;;5085151;27;51060;-74
2023/04/13 19:26:18;;;;;;;;;1.00;1.00;;;;;;;;5088892;27;49761;-75
2023/04/13 19:28:45;;;;;;;;;2.50;1.50;;;;;;;;5090034;27;49750;-74
2023/04/13 19:31:11;;;;;;;;;2.25;2.00;;;;;;;;5088793;27;50033;-73
2023/04/13 19:33:37;;;;;;;;;2.00;2.00;;;;;;;;5082684;27;50180;-75
2023/04/13 19:36:04;;;;;;;;;2.00;2.00;;;;;;;;5088008;27;50250;-75
2023/04/13 19:38:29;;;;;;;;;2.00;2.00;;;;;;;;5068715;27;49985;-75
2023/04/13 19:40:56;;;;;;;;;2.00;2.00;;;;;;;;5090608;27;49776;-75
2023/04/13 19:43:23;;;;;;;;;4.25;1.75;;;;;;;;5070673;27;51481;-74
2023/04/13 19:45:49;;;;;;;;;3.25;2.25;;;;;;;;5085310;27;49851;-74
2023/04/13 19:48:14;;;;;;;;;2.50;2.50;;;;;;;;5087635;27;49763;-74
2023/04/13 19:50:40;;;;;;;;;1.75;1.75;;;;;;;;5087603;27;49707;-73
2023/04/13 19:53:07;;;;;;;;;4.00;3.25;;;;;;;;5087167;27;50498;-74
2023/04/13 19:55:33;;;;;;;;;3.50;3.50;;;;;;;;5088978;27;49691;-74
2023/04/13 19:57:58;;;;;;;;;4.00;4.00;;;;;;;;5069014;27;50149;-74
2023/04/13 20:00:23;;;;;;;;;4.00;2.50;;;;;;;;5067925;27;50142;-73
2023/04/13 20:02:51;;;;;;;;;3.75;3.75;;;;;;;;5086414;27;50958;-74
2023/04/13 20:05:16;;;;;;;;;2.75;2.75;;;;;;;;5062828;27;50207;-74